sensor_id;sensor_type;location;lat;lon;timestamp;temperature;humidity
13148;DHT22;6639;50.956;4.242;2022-12-01T00:01:16;13.50;99.90
13148;DHT22;6639;50.956;4.242;2022-12-01T00:03:44;13.40;99.90
13148;DHT22;6639;50.956;4.242;2022-12-01T00:06:13;13.40;99.90
13148;DHT22;6639;50.956;4.242;2022-12-01T00:08:41;13.40;99.90
13148;DHT22;6639;50.956;4.242;2022-12-01T00:11:30;13.40;99.90
13148;DHT22;6639;50.956;4.242;2022-12-01T00:13:56;13.40;99.90
13148;DHT22;6639;50.956;4.242;2022-12-01T00:16:23;13.40;99.90
13148;DHT22;6639;50.956;4.242;2022-12-01T00:18:52;13.40;99.90
13148;DHT22;6639;50.956;4.242;2022-12-01T00:21:20;13.40;99.90
13148;DHT22;6639;50.956;4.242;2022-12-01T00:23:49;13.40;99.90
13148;DHT22;6639;50.956;4.242;2022-12-01T00:26:17;13.40;99.90
13148;DHT22;6639;50.956;4.242;2022-12-01T00:28:47;13.30;99.90
13148;DHT22;6639;50.956;4.242;2022-12-01T00:31:14;13.40;99.90
13148;DHT22;6639;50.956;4.242;2022-12-01T00:33:41;13.30;99.90
13148;DHT22;6639;50.956;4.242;2022-12-01T00:36:10;13.20;99.90
13148;DHT22;6639;50.956;4.242;2022-12-01T00:38:37;13.30;99.90
13148;DHT22;6639;50.956;4.242;2022-12-01T00:41:04;13.40;99.90
13148;DHT22;6639;50.956;4.242;2022-12-01T00:43:31;13.40;99.90
13148;DHT22;6639;50.956;4.242;2022-12-01T00:45:58;13.40;99.90
13148;DHT22;6639;50.956;4.242;2022-12-01T00:48:25;13.40;99.90
13148;DHT22;6639;50.956;4.242;2022-12-01T00:50:53;13.50;99.90
13148;DHT22;6639;50.956;4.242;2022-12-01T00:53:22;13.50;99.90
13148;DHT22;6639;50.956;4.242;2022-12-01T00:55:49;13.50;99.90
13148;DHT22;6639;50.956;4.242;2022-12-01T00:58:18;13.40;99.90
13148;DHT22;6639;50.956;4.242;2022-12-01T01:00:45;13.50;99.90
13148;DHT22;6639;50.956;4.242;2022-12-01T01:03:12;13.50;99.90
13148;DHT22;6639;50.956;4.242;2022-12-01T01:05:40;13.40;99.90
13148;DHT22;6639;50.956;4.242;2022-12-01T01:08:09;13.20;99.90
13148;DHT22;6639;50.956;4.242;2022-12-01T01:10:38;12.90;99.90
13148;DHT22;6639;50.956;4.242;2022-12-01T01:13:05;12.60;99.90
13148;DHT22;6639;50.956;4.242;2022-12-01T01:15:32;11.50;99.90
13148;DHT22;6639;50.956;4.242;2022-12-01T01:18:00;11.40;99.90
13148;DHT22;6639;50.956;4.242;2022-12-01T01:20:27;11.80;99.90
13148;DHT22;6639;50.956;4.242;2022-12-01T01:22:54;11.40;99.90
13148;DHT22;6639;50.956;4.242;2022-12-01T01:25:21;11.30;99.90
13148;DHT22;6639;50.956;4.242;2022-12-01T01:27:50;11.70;99.90
13148;DHT22;6639;50.956;4.242;2022-12-01T01:30:17;12.20;99.90
13148;DHT22;6639;50.956;4.242;2022-12-01T01:32:44;12.20;99.90
13148;DHT22;6639;50.956;4.242;2022-12-01T01:35:11;11.80;99.90
13148;DHT22;6639;50.956;4.242;2022-12-01T01:37:38;11.90;99.90
13148;DHT22;6639;50.956;4.242;2022-12-01T01:40:06;12.30;99.90
13148;DHT22;6639;50.956;4.242;2022-12-01T01:42:33;12.50;99.90
13148;DHT22;6639;50.956;4.242;2022-12-01T01:45:01;12.60;99.90
13148;DHT22;6639;50.956;4.242;2022-12-01T01:47:31;12.90;99.90
13148;DHT22;6639;50.956;4.242;2022-12-01T01:50:02;13.00;99.90
13148;DHT22;6639;50.956;4.242;2022-12-01T01:52:33;12.80;99.90
13148;DHT22;6639;50.956;4.242;2022-12-01T01:55:02;12.60;99.90
13148;DHT22;6639;50.956;4.242;2022-12-01T01:57:31;12.70;99.90
13148;DHT22;6639;50.956;4.242;2022-12-01T02:00:03;12.50;99.90
13148;DHT22;6639;50.956;4.242;2022-12-01T02:02:35;11.80;99.90
13148;DHT22;6639;50.956;4.242;2022-12-01T02:05:06;11.30;99.90
13148;DHT22;6639;50.956;4.242;2022-12-01T02:07:36;11.00;99.90
13148;DHT22;6639;50.956;4.242;2022-12-01T02:10:04;11.20;99.90
13148;DHT22;6639;50.956;4.242;2022-12-01T02:12:56;11.00;99.90
13148;DHT22;6639;50.956;4.242;2022-12-01T02:15:33;11.20;99.90
13148;DHT22;6639;50.956;4.242;2022-12-01T02:18:12;10.20;99.90
13148;DHT22;6639;50.956;4.242;2022-12-01T02:21:10;10.20;99.90
13148;DHT22;6639;50.956;4.242;2022-12-01T02:26:47;9.80;99.90
13148;DHT22;6639;50.956;4.242;2022-12-01T02:29:40;9.30;99.90
13148;DHT22;6639;50.956;4.242;2022-12-01T02:32:15;9.40;99.90
13148;DHT22;6639;50.956;4.242;2022-12-01T02:34:51;10.00;99.90
13148;DHT22;6639;50.956;4.242;2022-12-01T02:37:27;10.80;99.90
13148;DHT22;6639;50.956;4.242;2022-12-01T02:40:02;11.40;99.90
13148;DHT22;6639;50.956;4.242;2022-12-01T02:42:37;12.10;99.90
13148;DHT22;6639;50.956;4.242;2022-12-01T02:45:30;12.10;99.90
13148;DHT22;6639;50.956;4.242;2022-12-01T02:48:01;12.40;99.90
13148;DHT22;6639;50.956;4.242;2022-12-01T02:50:32;12.40;99.90
13148;DHT22;6639;50.956;4.242;2022-12-01T02:53:02;12.90;99.90
13148;DHT22;6639;50.956;4.242;2022-12-01T02:55:30;12.80;99.90
13148;DHT22;6639;50.956;4.242;2022-12-01T02:57:56;13.00;99.90
13148;DHT22;6639;50.956;4.242;2022-12-01T03:00:23;13.20;99.90
13148;DHT22;6639;50.956;4.242;2022-12-01T03:03:09;13.40;99.90
13148;DHT22;6639;50.956;4.242;2022-12-01T03:05:43;13.10;99.90
13148;DHT22;6639;50.956;4.242;2022-12-01T03:08:21;11.80;99.90
13148;DHT22;6639;50.956;4.242;2022-12-01T03:10:54;12.10;99.90
13148;DHT22;6639;50.956;4.242;2022-12-01T03:13:32;11.70;99.90
13148;DHT22;6639;50.956;4.242;2022-12-01T03:16:06;11.00;99.90
13148;DHT22;6639;50.956;4.242;2022-12-01T03:18:38;10.60;99.90
13148;DHT22;6639;50.956;4.242;2022-12-01T03:21:09;9.80;99.90
13148;DHT22;6639;50.956;4.242;2022-12-01T03:23:40;9.90;99.90
13148;DHT22;6639;50.956;4.242;2022-12-01T03:26:10;10.20;99.90
13148;DHT22;6639;50.956;4.242;2022-12-01T03:28:45;11.20;99.90
13148;DHT22;6639;50.956;4.242;2022-12-01T03:31:16;11.80;99.90
13148;DHT22;6639;50.956;4.242;2022-12-01T03:33:49;12.20;99.90
13148;DHT22;6639;50.956;4.242;2022-12-01T03:36:21;12.30;99.90
13148;DHT22;6639;50.956;4.242;2022-12-01T03:38:53;11.20;99.90
13148;DHT22;6639;50.956;4.242;2022-12-01T03:41:25;11.30;99.90
13148;DHT22;6639;50.956;4.242;2022-12-01T03:43:57;11.30;99.90
13148;DHT22;6639;50.956;4.242;2022-12-01T03:46:34;10.90;99.90
13148;DHT22;6639;50.956;4.242;2022-12-01T03:49:04;10.70;99.90
13148;DHT22;6639;50.956;4.242;2022-12-01T03:51:38;11.00;99.90
13148;DHT22;6639;50.956;4.242;2022-12-01T03:54:13;10.90;99.90
13148;DHT22;6639;50.956;4.242;2022-12-01T03:56:46;11.10;99.90
13148;DHT22;6639;50.956;4.242;2022-12-01T03:59:15;10.80;99.90
13148;DHT22;6639;50.956;4.242;2022-12-01T04:01:44;10.80;99.90
13148;DHT22;6639;50.956;4.242;2022-12-01T04:04:13;11.20;99.90
13148;DHT22;6639;50.956;4.242;2022-12-01T04:06:43;11.50;99.90
13148;DHT22;6639;50.956;4.242;2022-12-01T04:09:11;11.30;99.90
13148;DHT22;6639;50.956;4.242;2022-12-01T04:11:38;10.60;99.90
13148;DHT22;6639;50.956;4.242;2022-12-01T04:14:23;10.80;99.90
13148;DHT22;6639;50.956;4.242;2022-12-01T04:16:49;11.00;99.90
13148;DHT22;6639;50.956;4.242;2022-12-01T04:19:18;11.50;99.90
13148;DHT22;6639;50.956;4.242;2022-12-01T04:21:45;11.10;99.90
13148;DHT22;6639;50.956;4.242;2022-12-01T04:24:12;10.70;99.90
13148;DHT22;6639;50.956;4.242;2022-12-01T04:26:39;10.80;99.90
13148;DHT22;6639;50.956;4.242;2022-12-01T04:29:08;10.90;99.90
13148;DHT22;6639;50.956;4.242;2022-12-01T04:31:35;11.20;99.90
13148;DHT22;6639;50.956;4.242;2022-12-01T04:34:03;11.70;99.90
13148;DHT22;6639;50.956;4.242;2022-12-01T04:36:33;11.00;99.90
13148;DHT22;6639;50.956;4.242;2022-12-01T04:39:00;11.50;99.90
13148;DHT22;6639;50.956;4.242;2022-12-01T04:41:28;12.00;99.90
13148;DHT22;6639;50.956;4.242;2022-12-01T04:43:55;12.00;99.90
13148;DHT22;6639;50.956;4.242;2022-12-01T04:46:22;12.10;99.90
13148;DHT22;6639;50.956;4.242;2022-12-01T04:48:49;12.20;99.90
13148;DHT22;6639;50.956;4.242;2022-12-01T04:51:17;12.40;99.90
13148;DHT22;6639;50.956;4.242;2022-12-01T04:53:45;13.00;99.90
13148;DHT22;6639;50.956;4.242;2022-12-01T04:56:12;13.30;99.90
13148;DHT22;6639;50.956;4.242;2022-12-01T04:58:39;13.50;99.90
13148;DHT22;6639;50.956;4.242;2022-12-01T05:01:08;13.30;99.90
13148;DHT22;6639;50.956;4.242;2022-12-01T05:03:36;13.70;99.90
13148;DHT22;6639;50.956;4.242;2022-12-01T05:06:05;13.80;99.90
13148;DHT22;6639;50.956;4.242;2022-12-01T05:08:32;13.00;99.90
13148;DHT22;6639;50.956;4.242;2022-12-01T05:11:01;13.20;99.90
13148;DHT22;6639;50.956;4.242;2022-12-01T05:13:28;13.30;99.90
13148;DHT22;6639;50.956;4.242;2022-12-01T05:16:04;13.40;99.90
13148;DHT22;6639;50.956;4.242;2022-12-01T05:18:31;12.70;99.90
13148;DHT22;6639;50.956;4.242;2022-12-01T05:20:58;12.10;99.90
13148;DHT22;6639;50.956;4.242;2022-12-01T05:23:24;11.80;99.90
13148;DHT22;6639;50.956;4.242;2022-12-01T05:25:52;11.80;99.90
13148;DHT22;6639;50.956;4.242;2022-12-01T05:28:21;11.90;99.90
13148;DHT22;6639;50.956;4.242;2022-12-01T05:30:49;12.40;99.90
13148;DHT22;6639;50.956;4.242;2022-12-01T05:33:16;12.20;99.90
13148;DHT22;6639;50.956;4.242;2022-12-01T05:35:43;11.80;99.90
13148;DHT22;6639;50.956;4.242;2022-12-01T05:38:10;11.90;99.90
13148;DHT22;6639;50.956;4.242;2022-12-01T05:40:37;12.10;99.90
13148;DHT22;6639;50.956;4.242;2022-12-01T05:43:04;11.90;99.90
13148;DHT22;6639;50.956;4.242;2022-12-01T05:45:33;11.70;99.90
13148;DHT22;6639;50.956;4.242;2022-12-01T05:48:01;12.20;99.90
13148;DHT22;6639;50.956;4.242;2022-12-01T05:50:28;12.40;99.90
13148;DHT22;6639;50.956;4.242;2022-12-01T05:52:56;12.50;99.90
13148;DHT22;6639;50.956;4.242;2022-12-01T05:55:22;12.70;99.90
13148;DHT22;6639;50.956;4.242;2022-12-01T05:57:49;12.40;99.90
13148;DHT22;6639;50.956;4.242;2022-12-01T06:00:17;12.10;99.90
13148;DHT22;6639;50.956;4.242;2022-12-01T06:02:46;12.40;99.90
13148;DHT22;6639;50.956;4.242;2022-12-01T06:05:12;12.50;99.90
13148;DHT22;6639;50.956;4.242;2022-12-01T06:07:39;12.90;99.90
13148;DHT22;6639;50.956;4.242;2022-12-01T06:10:07;13.10;99.90
13148;DHT22;6639;50.956;4.242;2022-12-01T06:12:36;12.70;99.90
13148;DHT22;6639;50.956;4.242;2022-12-01T06:15:05;12.50;99.90
13148;DHT22;6639;50.956;4.242;2022-12-01T06:17:32;11.70;99.90
13148;DHT22;6639;50.956;4.242;2022-12-01T06:20:01;11.60;99.90
13148;DHT22;6639;50.956;4.242;2022-12-01T06:22:28;11.60;99.90
13148;DHT22;6639;50.956;4.242;2022-12-01T06:24:55;11.40;99.90
13148;DHT22;6639;50.956;4.242;2022-12-01T06:27:22;11.60;99.90
13148;DHT22;6639;50.956;4.242;2022-12-01T06:29:48;11.00;99.90
13148;DHT22;6639;50.956;4.242;2022-12-01T06:32:16;10.60;99.90
13148;DHT22;6639;50.956;4.242;2022-12-01T06:34:43;10.50;99.90
13148;DHT22;6639;50.956;4.242;2022-12-01T06:37:11;10.40;99.90
13148;DHT22;6639;50.956;4.242;2022-12-01T06:39:40;10.80;99.90
13148;DHT22;6639;50.956;4.242;2022-12-01T06:42:07;11.90;99.90
13148;DHT22;6639;50.956;4.242;2022-12-01T06:44:34;12.40;99.90
13148;DHT22;6639;50.956;4.242;2022-12-01T06:47:01;12.80;99.90
13148;DHT22;6639;50.956;4.242;2022-12-01T06:49:28;13.10;99.90
13148;DHT22;6639;50.956;4.242;2022-12-01T06:51:55;13.10;99.90
13148;DHT22;6639;50.956;4.242;2022-12-01T06:54:23;13.30;99.90
13148;DHT22;6639;50.956;4.242;2022-12-01T06:56:50;13.50;99.90
13148;DHT22;6639;50.956;4.242;2022-12-01T06:59:17;13.30;99.90
13148;DHT22;6639;50.956;4.242;2022-12-01T07:01:44;13.60;99.90
13148;DHT22;6639;50.956;4.242;2022-12-01T07:04:11;13.70;99.90
13148;DHT22;6639;50.956;4.242;2022-12-01T07:06:38;13.80;99.90
13148;DHT22;6639;50.956;4.242;2022-12-01T07:09:05;13.60;99.90
13148;DHT22;6639;50.956;4.242;2022-12-01T07:11:33;13.50;99.90
13148;DHT22;6639;50.956;4.242;2022-12-01T07:14:01;13.50;99.90
13148;DHT22;6639;50.956;4.242;2022-12-01T07:16:28;13.70;99.90
13148;DHT22;6639;50.956;4.242;2022-12-01T07:18:56;13.40;99.90
13148;DHT22;6639;50.956;4.242;2022-12-01T07:21:24;13.20;99.90
13148;DHT22;6639;50.956;4.242;2022-12-01T07:23:51;13.30;99.90
13148;DHT22;6639;50.956;4.242;2022-12-01T07:26:18;13.30;99.90
13148;DHT22;6639;50.956;4.242;2022-12-01T07:28:46;13.30;99.90
13148;DHT22;6639;50.956;4.242;2022-12-01T07:31:15;13.70;99.90
13148;DHT22;6639;50.956;4.242;2022-12-01T07:33:42;13.80;99.90
13148;DHT22;6639;50.956;4.242;2022-12-01T07:36:10;13.70;99.90
13148;DHT22;6639;50.956;4.242;2022-12-01T07:38:37;13.80;99.90
13148;DHT22;6639;50.956;4.242;2022-12-01T07:41:06;13.80;99.90
13148;DHT22;6639;50.956;4.242;2022-12-01T07:43:33;13.80;99.90
13148;DHT22;6639;50.956;4.242;2022-12-01T07:46:06;13.90;99.90
13148;DHT22;6639;50.956;4.242;2022-12-01T07:48:34;13.90;99.90
13148;DHT22;6639;50.956;4.242;2022-12-01T07:51:01;13.80;99.90
13148;DHT22;6639;50.956;4.242;2022-12-01T07:53:29;13.80;99.90
13148;DHT22;6639;50.956;4.242;2022-12-01T07:55:56;13.90;99.90
13148;DHT22;6639;50.956;4.242;2022-12-01T07:58:23;13.80;99.90
13148;DHT22;6639;50.956;4.242;2022-12-01T08:00:50;13.90;99.90
13148;DHT22;6639;50.956;4.242;2022-12-01T08:03:19;14.00;99.90
13148;DHT22;6639;50.956;4.242;2022-12-01T08:05:54;14.00;99.90
13148;DHT22;6639;50.956;4.242;2022-12-01T08:08:21;14.10;99.90
13148;DHT22;6639;50.956;4.242;2022-12-01T08:10:48;14.20;99.90
13148;DHT22;6639;50.956;4.242;2022-12-01T08:13:15;14.30;99.90
13148;DHT22;6639;50.956;4.242;2022-12-01T08:15:42;14.30;99.90
13148;DHT22;6639;50.956;4.242;2022-12-01T08:18:09;14.20;99.90
13148;DHT22;6639;50.956;4.242;2022-12-01T08:20:38;14.00;99.90
13148;DHT22;6639;50.956;4.242;2022-12-01T08:23:04;13.70;99.90
13148;DHT22;6639;50.956;4.242;2022-12-01T08:25:32;13.10;99.90
13148;DHT22;6639;50.956;4.242;2022-12-01T08:28:00;13.00;99.90
13148;DHT22;6639;50.956;4.242;2022-12-01T08:30:27;13.50;99.90
13148;DHT22;6639;50.956;4.242;2022-12-01T08:32:56;13.40;99.90
13148;DHT22;6639;50.956;4.242;2022-12-01T08:35:24;13.30;99.90
13148;DHT22;6639;50.956;4.242;2022-12-01T08:37:53;13.70;99.90
13148;DHT22;6639;50.956;4.242;2022-12-01T08:40:20;14.00;99.90
13148;DHT22;6639;50.956;4.242;2022-12-01T08:42:47;14.20;99.90
13148;DHT22;6639;50.956;4.242;2022-12-01T08:45:14;14.20;99.90
13148;DHT22;6639;50.956;4.242;2022-12-01T08:47:41;14.20;99.90
13148;DHT22;6639;50.956;4.242;2022-12-01T08:50:08;14.30;99.90
13148;DHT22;6639;50.956;4.242;2022-12-01T08:52:35;14.40;99.90
13148;DHT22;6639;50.956;4.242;2022-12-01T08:55:05;14.40;99.90
13148;DHT22;6639;50.956;4.242;2022-12-01T08:57:32;14.40;99.90
13148;DHT22;6639;50.956;4.242;2022-12-01T08:59:59;14.60;99.90
13148;DHT22;6639;50.956;4.242;2022-12-01T09:02:26;14.60;99.90
13148;DHT22;6639;50.956;4.242;2022-12-01T09:04:53;13.90;99.90
13148;DHT22;6639;50.956;4.242;2022-12-01T09:07:20;13.50;99.90
13148;DHT22;6639;50.956;4.242;2022-12-01T09:09:47;13.70;99.90
13148;DHT22;6639;50.956;4.242;2022-12-01T09:12:16;13.80;99.90
13148;DHT22;6639;50.956;4.242;2022-12-01T09:14:43;12.70;99.90
13148;DHT22;6639;50.956;4.242;2022-12-01T09:17:13;12.40;99.90
13148;DHT22;6639;50.956;4.242;2022-12-01T09:19:40;12.60;99.90
13148;DHT22;6639;50.956;4.242;2022-12-01T09:22:07;12.60;99.90
13148;DHT22;6639;50.956;4.242;2022-12-01T09:24:33;13.10;99.90
13148;DHT22;6639;50.956;4.242;2022-12-01T09:27:00;12.90;99.90
13148;DHT22;6639;50.956;4.242;2022-12-01T09:29:29;12.30;99.90
13148;DHT22;6639;50.956;4.242;2022-12-01T09:31:57;12.80;99.90
13148;DHT22;6639;50.956;4.242;2022-12-01T09:34:25;13.10;99.90
13148;DHT22;6639;50.956;4.242;2022-12-01T09:36:54;13.60;99.90
13148;DHT22;6639;50.956;4.242;2022-12-01T09:39:22;13.90;99.90
13148;DHT22;6639;50.956;4.242;2022-12-01T09:41:52;13.20;99.90
13148;DHT22;6639;50.956;4.242;2022-12-01T09:44:29;12.40;99.90
13148;DHT22;6639;50.956;4.242;2022-12-01T09:46:59;12.00;99.90
13148;DHT22;6639;50.956;4.242;2022-12-01T09:49:41;11.30;99.90
13148;DHT22;6639;50.956;4.242;2022-12-01T09:52:12;11.50;99.90
13148;DHT22;6639;50.956;4.242;2022-12-01T09:54:40;11.50;99.90
13148;DHT22;6639;50.956;4.242;2022-12-01T09:57:13;11.30;99.90
13148;DHT22;6639;50.956;4.242;2022-12-01T09:59:43;11.20;99.90
13148;DHT22;6639;50.956;4.242;2022-12-01T10:02:22;10.60;99.90
13148;DHT22;6639;50.956;4.242;2022-12-01T10:04:50;10.80;99.90
13148;DHT22;6639;50.956;4.242;2022-12-01T10:07:20;11.40;99.90
13148;DHT22;6639;50.956;4.242;2022-12-01T10:09:53;11.40;99.90
13148;DHT22;6639;50.956;4.242;2022-12-01T10:12:22;11.20;99.90
13148;DHT22;6639;50.956;4.242;2022-12-01T10:14:59;11.20;99.90
13148;DHT22;6639;50.956;4.242;2022-12-01T10:17:36;11.20;99.90
13148;DHT22;6639;50.956;4.242;2022-12-01T10:20:14;11.20;99.90
13148;DHT22;6639;50.956;4.242;2022-12-01T10:25:49;11.30;99.90
13148;DHT22;6639;50.956;4.242;2022-12-01T10:31:14;11.20;99.90
13148;DHT22;6639;50.956;4.242;2022-12-01T10:33:52;11.00;99.90
13148;DHT22;6639;50.956;4.242;2022-12-01T10:36:23;11.20;99.90
13148;DHT22;6639;50.956;4.242;2022-12-01T10:38:50;11.50;99.90
13148;DHT22;6639;50.956;4.242;2022-12-01T10:41:18;10.80;99.90
13148;DHT22;6639;50.956;4.242;2022-12-01T10:43:49;10.90;99.90
13148;DHT22;6639;50.956;4.242;2022-12-01T10:46:22;11.40;99.90
13148;DHT22;6639;50.956;4.242;2022-12-01T10:48:55;11.30;99.90
13148;DHT22;6639;50.956;4.242;2022-12-01T10:51:22;11.70;99.90
13148;DHT22;6639;50.956;4.242;2022-12-01T10:53:49;12.10;99.90
13148;DHT22;6639;50.956;4.242;2022-12-01T10:56:22;11.60;99.90
13148;DHT22;6639;50.956;4.242;2022-12-01T10:58:51;12.20;99.90
13148;DHT22;6639;50.956;4.242;2022-12-01T11:01:22;11.90;99.90
13148;DHT22;6639;50.956;4.242;2022-12-01T11:03:52;12.60;99.90
13148;DHT22;6639;50.956;4.242;2022-12-01T11:06:24;13.10;99.90
13148;DHT22;6639;50.956;4.242;2022-12-01T11:08:55;13.20;99.90
13148;DHT22;6639;50.956;4.242;2022-12-01T11:11:26;12.40;99.90
13148;DHT22;6639;50.956;4.242;2022-12-01T11:13:53;12.50;99.90
13148;DHT22;6639;50.956;4.242;2022-12-01T11:16:40;12.30;99.90
13148;DHT22;6639;50.956;4.242;2022-12-01T11:19:16;11.60;99.90
13148;DHT22;6639;50.956;4.242;2022-12-01T11:21:46;11.50;99.90
13148;DHT22;6639;50.956;4.242;2022-12-01T11:24:28;11.30;99.90
13148;DHT22;6639;50.956;4.242;2022-12-01T11:26:55;11.30;99.90
13148;DHT22;6639;50.956;4.242;2022-12-01T11:29:29;11.50;99.90
13148;DHT22;6639;50.956;4.242;2022-12-01T11:31:59;11.60;99.90
13148;DHT22;6639;50.956;4.242;2022-12-01T11:34:31;12.20;99.90
13148;DHT22;6639;50.956;4.242;2022-12-01T11:37:02;12.30;99.90
13148;DHT22;6639;50.956;4.242;2022-12-01T11:39:32;12.10;99.90
13148;DHT22;6639;50.956;4.242;2022-12-01T11:42:01;11.70;99.90
13148;DHT22;6639;50.956;4.242;2022-12-01T11:44:30;11.80;99.90
13148;DHT22;6639;50.956;4.242;2022-12-01T11:47:12;11.80;99.90
13148;DHT22;6639;50.956;4.242;2022-12-01T11:49:41;11.80;99.90
13148;DHT22;6639;50.956;4.242;2022-12-01T11:52:19;11.60;99.90
13148;DHT22;6639;50.956;4.242;2022-12-01T11:54:54;11.70;99.90
13148;DHT22;6639;50.956;4.242;2022-12-01T11:57:23;11.30;99.90
13148;DHT22;6639;50.956;4.242;2022-12-01T11:59:51;11.30;99.90
13148;DHT22;6639;50.956;4.242;2022-12-01T12:02:26;11.60;99.90
13148;DHT22;6639;50.956;4.242;2022-12-01T12:05:15;11.10;99.90
13148;DHT22;6639;50.956;4.242;2022-12-01T12:07:51;11.00;99.90
13148;DHT22;6639;50.956;4.242;2022-12-01T12:10:30;11.40;99.90
13148;DHT22;6639;50.956;4.242;2022-12-01T12:13:09;11.80;99.90
13148;DHT22;6639;50.956;4.242;2022-12-01T12:15:47;11.50;99.90
13148;DHT22;6639;50.956;4.242;2022-12-01T12:18:30;11.50;99.90
13148;DHT22;6639;50.956;4.242;2022-12-01T12:21:06;11.50;99.90
13148;DHT22;6639;50.956;4.242;2022-12-01T12:26:29;12.10;99.90
13148;DHT22;6639;50.956;4.242;2022-12-01T12:29:10;11.90;99.90
13148;DHT22;6639;50.956;4.242;2022-12-01T12:31:54;11.80;99.90
13148;DHT22;6639;50.956;4.242;2022-12-01T12:34:39;11.70;99.90
13148;DHT22;6639;50.956;4.242;2022-12-01T12:37:14;11.60;99.90
13148;DHT22;6639;50.956;4.242;2022-12-01T12:40:19;11.10;99.90
13148;DHT22;6639;50.956;4.242;2022-12-01T12:42:56;11.00;99.90
13148;DHT22;6639;50.956;4.242;2022-12-01T12:45:30;11.00;99.90
13148;DHT22;6639;50.956;4.242;2022-12-01T12:48:11;11.40;99.90
13148;DHT22;6639;50.956;4.242;2022-12-01T12:50:47;11.90;99.90
13148;DHT22;6639;50.956;4.242;2022-12-01T12:53:20;12.20;99.90
13148;DHT22;6639;50.956;4.242;2022-12-01T12:55:49;11.70;99.90
13148;DHT22;6639;50.956;4.242;2022-12-01T12:58:21;11.50;99.90
13148;DHT22;6639;50.956;4.242;2022-12-01T13:00:52;12.30;99.90
13148;DHT22;6639;50.956;4.242;2022-12-01T13:03:26;12.50;99.90
13148;DHT22;6639;50.956;4.242;2022-12-01T13:06:00;12.80;99.90
13148;DHT22;6639;50.956;4.242;2022-12-01T13:08:33;13.40;99.90
13148;DHT22;6639;50.956;4.242;2022-12-01T13:11:05;13.60;99.90
13148;DHT22;6639;50.956;4.242;2022-12-01T13:13:37;13.10;99.90
13148;DHT22;6639;50.956;4.242;2022-12-01T13:16:10;13.00;99.90
13148;DHT22;6639;50.956;4.242;2022-12-01T13:18:46;12.50;99.90
13148;DHT22;6639;50.956;4.242;2022-12-01T13:21:17;12.90;99.90
13148;DHT22;6639;50.956;4.242;2022-12-01T13:23:45;12.80;99.90
13148;DHT22;6639;50.956;4.242;2022-12-01T13:26:14;12.70;99.90
13148;DHT22;6639;50.956;4.242;2022-12-01T13:28:50;12.90;99.90
13148;DHT22;6639;50.956;4.242;2022-12-01T13:31:18;13.60;99.90
13148;DHT22;6639;50.956;4.242;2022-12-01T13:33:54;13.40;99.90
13148;DHT22;6639;50.956;4.242;2022-12-01T13:36:23;12.20;99.90
13148;DHT22;6639;50.956;4.242;2022-12-01T13:38:56;12.50;99.90
13148;DHT22;6639;50.956;4.242;2022-12-01T13:41:26;13.00;99.90
13148;DHT22;6639;50.956;4.242;2022-12-01T13:43:58;13.40;99.90
13148;DHT22;6639;50.956;4.242;2022-12-01T13:46:27;13.10;99.90
13148;DHT22;6639;50.956;4.242;2022-12-01T13:48:56;12.70;99.90
13148;DHT22;6639;50.956;4.242;2022-12-01T13:51:25;13.10;99.90
13148;DHT22;6639;50.956;4.242;2022-12-01T13:54:04;13.40;99.90
13148;DHT22;6639;50.956;4.242;2022-12-01T13:56:37;13.40;99.90
13148;DHT22;6639;50.956;4.242;2022-12-01T13:59:39;13.00;99.90
13148;DHT22;6639;50.956;4.242;2022-12-01T14:02:17;12.90;99.90
13148;DHT22;6639;50.956;4.242;2022-12-01T14:04:44;13.00;99.90
13148;DHT22;6639;50.956;4.242;2022-12-01T14:07:36;12.20;99.90
13148;DHT22;6639;50.956;4.242;2022-12-01T14:10:24;13.20;99.90
13148;DHT22;6639;50.956;4.242;2022-12-01T14:12:54;13.90;99.90
13148;DHT22;6639;50.956;4.242;2022-12-01T14:15:37;13.90;99.90
13148;DHT22;6639;50.956;4.242;2022-12-01T14:18:20;13.60;99.90
13148;DHT22;6639;50.956;4.242;2022-12-01T14:20:49;13.20;99.90
13148;DHT22;6639;50.956;4.242;2022-12-01T14:23:23;13.10;99.90
13148;DHT22;6639;50.956;4.242;2022-12-01T14:26:14;13.90;99.90
13148;DHT22;6639;50.956;4.242;2022-12-01T14:32:19;14.70;99.90
13148;DHT22;6639;50.956;4.242;2022-12-01T14:34:50;14.50;99.90
13148;DHT22;6639;50.956;4.242;2022-12-01T14:37:19;14.90;99.90
13148;DHT22;6639;50.956;4.242;2022-12-01T14:39:55;15.10;99.90
13148;DHT22;6639;50.956;4.242;2022-12-01T14:42:29;15.30;99.90
13148;DHT22;6639;50.956;4.242;2022-12-01T14:45:17;15.40;99.90
13148;DHT22;6639;50.956;4.242;2022-12-01T14:47:48;14.90;99.90
13148;DHT22;6639;50.956;4.242;2022-12-01T14:50:21;14.70;99.90
13148;DHT22;6639;50.956;4.242;2022-12-01T14:52:52;14.80;99.90
13148;DHT22;6639;50.956;4.242;2022-12-01T14:55:27;14.80;99.90
13148;DHT22;6639;50.956;4.242;2022-12-01T14:58:00;14.90;99.90
13148;DHT22;6639;50.956;4.242;2022-12-01T15:00:30;13.80;99.90
13148;DHT22;6639;50.956;4.242;2022-12-01T15:03:02;13.60;99.90
13148;DHT22;6639;50.956;4.242;2022-12-01T15:05:31;14.00;99.90
13148;DHT22;6639;50.956;4.242;2022-12-01T15:08:13;13.80;99.90
13148;DHT22;6639;50.956;4.242;2022-12-01T15:10:49;13.90;99.90
13148;DHT22;6639;50.956;4.242;2022-12-01T15:13:21;13.80;99.90
13148;DHT22;6639;50.956;4.242;2022-12-01T15:15:50;13.60;99.90
13148;DHT22;6639;50.956;4.242;2022-12-01T15:18:22;14.20;99.90
13148;DHT22;6639;50.956;4.242;2022-12-01T15:20:49;14.00;99.90
13148;DHT22;6639;50.956;4.242;2022-12-01T15:23:21;14.10;99.90
13148;DHT22;6639;50.956;4.242;2022-12-01T15:25:49;14.30;99.90
13148;DHT22;6639;50.956;4.242;2022-12-01T15:28:18;14.80;99.90
13148;DHT22;6639;50.956;4.242;2022-12-01T15:30:46;15.10;99.90
13148;DHT22;6639;50.956;4.242;2022-12-01T15:33:19;14.90;99.90
13148;DHT22;6639;50.956;4.242;2022-12-01T15:35:47;14.50;99.90
13148;DHT22;6639;50.956;4.242;2022-12-01T15:38:16;13.70;99.90
13148;DHT22;6639;50.956;4.242;2022-12-01T15:40:44;13.60;99.90
13148;DHT22;6639;50.956;4.242;2022-12-01T15:43:17;14.20;99.90
13148;DHT22;6639;50.956;4.242;2022-12-01T15:45:52;14.40;99.90
13148;DHT22;6639;50.956;4.242;2022-12-01T15:48:26;14.20;99.90
13148;DHT22;6639;50.956;4.242;2022-12-01T15:51:15;14.20;99.90
13148;DHT22;6639;50.956;4.242;2022-12-01T15:53:47;14.20;99.90
13148;DHT22;6639;50.956;4.242;2022-12-01T15:56:15;13.10;99.90
13148;DHT22;6639;50.956;4.242;2022-12-01T15:58:45;12.60;99.90
13148;DHT22;6639;50.956;4.242;2022-12-01T16:01:15;12.60;99.90
13148;DHT22;6639;50.956;4.242;2022-12-01T16:03:52;12.70;99.90
13148;DHT22;6639;50.956;4.242;2022-12-01T16:06:21;12.90;99.90
13148;DHT22;6639;50.956;4.242;2022-12-01T16:08:53;13.20;99.90
13148;DHT22;6639;50.956;4.242;2022-12-01T16:11:22;13.30;99.90
13148;DHT22;6639;50.956;4.242;2022-12-01T16:13:57;12.70;99.90
13148;DHT22;6639;50.956;4.242;2022-12-01T16:16:43;12.40;99.90
13148;DHT22;6639;50.956;4.242;2022-12-01T16:19:28;12.90;99.90
13148;DHT22;6639;50.956;4.242;2022-12-01T16:22:02;12.60;99.90
13148;DHT22;6639;50.956;4.242;2022-12-01T16:24:32;12.70;99.90
13148;DHT22;6639;50.956;4.242;2022-12-01T16:27:02;12.60;99.90